Shimpstown, Pennsylvania
Current Conditions -  °F | °C
As of 3:53 PM on Friday 31 Oct 2014 (Local Time) from KHGR Reporting Station
Overcast Overcast  
Wind Chill: 52°   Ceiling: 5500
Heat Index: 52°   Visibility: 10mi
Dew Point: 35°   Wind: 5mph
Humidity: 53%   Direction: 70°ENE
Pressure: 29.86"   Gusts: NA
Location:  39.8035°N, 77.9346°W
Report Text: KHGR 311953Z AUTO 07004KT 10SM OVC055 11/02 A2986 RMK AO2 SLP125 T01110017
Loading
Personal Weather Stations






























Interactive Weather Map
Tropical Storm Tracking
New forecast layout! Learn more

10-Day Weather Forecast

Advertisements
Track Severe Weather on mobile